sensor_id;sensor_type;location;lat;lon;timestamp;P1;durP1;ratioP1;P2;durP2;ratioP2
51792;SDS011;37850;53.178;6.376;2023-04-06T00:01:56;11.98;;;6.13;;
51792;SDS011;37850;53.178;6.376;2023-04-06T00:04:21;10.38;;;5.35;;
51792;SDS011;37850;53.178;6.376;2023-04-06T00:06:47;10.95;;;5.97;;
51792;SDS011;37850;53.178;6.376;2023-04-06T00:09:13;9.23;;;5.13;;
51792;SDS011;37850;53.178;6.376;2023-04-06T00:11:38;14.05;;;5.97;;
51792;SDS011;37850;53.178;6.376;2023-04-06T00:14:04;11.00;;;5.82;;
51792;SDS011;37850;53.178;6.376;2023-04-06T00:16:30;13.13;;;5.93;;
51792;SDS011;37850;53.178;6.376;2023-04-06T00:18:56;10.35;;;5.82;;
51792;SDS011;37850;53.178;6.376;2023-04-06T00:21:22;10.95;;;5.57;;
51792;SDS011;37850;53.178;6.376;2023-04-06T00:23:48;10.48;;;5.90;;
51792;SDS011;37850;53.178;6.376;2023-04-06T00:26:14;9.52;;;5.13;;
51792;SDS011;37850;53.178;6.376;2023-04-06T00:28:39;10.82;;;5.60;;
51792;SDS011;37850;53.178;6.376;2023-04-06T00:31:05;9.38;;;5.50;;
51792;SDS011;37850;53.178;6.376;2023-04-06T00:33:30;10.88;;;5.35;;
51792;SDS011;37850;53.178;6.376;2023-04-06T00:35:57;11.95;;;6.18;;
51792;SDS011;37850;53.178;6.376;2023-04-06T00:38:23;11.98;;;5.03;;
51792;SDS011;37850;53.178;6.376;2023-04-06T00:40:48;11.18;;;5.32;;
51792;SDS011;37850;53.178;6.376;2023-04-06T00:43:15;13.90;;;5.28;;
51792;SDS011;37850;53.178;6.376;2023-04-06T00:45:41;11.20;;;5.00;;
51792;SDS011;37850;53.178;6.376;2023-04-06T00:48:07;10.85;;;5.40;;
51792;SDS011;37850;53.178;6.376;2023-04-06T00:50:33;8.75;;;4.85;;
51792;SDS011;37850;53.178;6.376;2023-04-06T00:53:00;12.98;;;5.35;;
51792;SDS011;37850;53.178;6.376;2023-04-06T00:55:29;11.40;;;5.63;;
51792;SDS011;37850;53.178;6.376;2023-04-06T00:57:55;9.40;;;4.75;;
51792;SDS011;37850;53.178;6.376;2023-04-06T01:00:23;13.07;;;5.32;;
51792;SDS011;37850;53.178;6.376;2023-04-06T01:02:49;8.93;;;4.95;;
51792;SDS011;37850;53.178;6.376;2023-04-06T01:05:15;9.23;;;4.97;;
51792;SDS011;37850;53.178;6.376;2023-04-06T01:07:41;10.15;;;4.70;;
51792;SDS011;37850;53.178;6.376;2023-04-06T01:10:06;9.73;;;4.72;;
51792;SDS011;37850;53.178;6.376;2023-04-06T01:12:35;9.55;;;4.93;;
51792;SDS011;37850;53.178;6.376;2023-04-06T01:15:03;14.50;;;5.43;;
51792;SDS011;37850;53.178;6.376;2023-04-06T01:17:30;10.68;;;4.68;;
51792;SDS011;37850;53.178;6.376;2023-04-06T01:19:56;9.70;;;4.35;;
51792;SDS011;37850;53.178;6.376;2023-04-06T01:22:22;9.18;;;5.25;;
51792;SDS011;37850;53.178;6.376;2023-04-06T01:24:49;9.52;;;4.85;;
51792;SDS011;37850;53.178;6.376;2023-04-06T01:27:15;9.77;;;4.53;;
51792;SDS011;37850;53.178;6.376;2023-04-06T01:29:40;8.57;;;4.47;;
51792;SDS011;37850;53.178;6.376;2023-04-06T01:32:08;8.75;;;4.72;;
51792;SDS011;37850;53.178;6.376;2023-04-06T01:34:34;11.20;;;4.78;;
51792;SDS011;37850;53.178;6.376;2023-04-06T01:37:05;8.40;;;4.95;;
51792;SDS011;37850;53.178;6.376;2023-04-06T01:39:31;8.20;;;4.47;;
51792;SDS011;37850;53.178;6.376;2023-04-06T01:41:57;8.48;;;4.10;;
51792;SDS011;37850;53.178;6.376;2023-04-06T01:44:22;9.32;;;4.57;;
51792;SDS011;37850;53.178;6.376;2023-04-06T01:46:48;8.98;;;4.85;;
51792;SDS011;37850;53.178;6.376;2023-04-06T01:49:14;9.02;;;5.05;;
51792;SDS011;37850;53.178;6.376;2023-04-06T01:51:39;12.65;;;4.65;;
51792;SDS011;37850;53.178;6.376;2023-04-06T01:54:05;8.73;;;5.03;;
51792;SDS011;37850;53.178;6.376;2023-04-06T01:56:31;11.82;;;5.20;;
51792;SDS011;37850;53.178;6.376;2023-04-06T01:58:56;9.93;;;4.45;;
51792;SDS011;37850;53.178;6.376;2023-04-06T02:01:22;8.43;;;4.70;;
51792;SDS011;37850;53.178;6.376;2023-04-06T02:03:48;9.00;;;4.65;;
51792;SDS011;37850;53.178;6.376;2023-04-06T02:06:13;11.07;;;5.22;;
51792;SDS011;37850;53.178;6.376;2023-04-06T02:08:39;10.88;;;5.15;;
51792;SDS011;37850;53.178;6.376;2023-04-06T02:11:05;8.52;;;4.80;;
51792;SDS011;37850;53.178;6.376;2023-04-06T02:13:31;12.27;;;5.15;;
51792;SDS011;37850;53.178;6.376;2023-04-06T02:15:56;10.10;;;4.80;;
51792;SDS011;37850;53.178;6.376;2023-04-06T02:18:22;11.13;;;5.03;;
51792;SDS011;37850;53.178;6.376;2023-04-06T02:20:48;9.00;;;4.72;;
51792;SDS011;37850;53.178;6.376;2023-04-06T02:23:13;9.93;;;5.28;;
51792;SDS011;37850;53.178;6.376;2023-04-06T02:25:40;8.20;;;4.53;;
51792;SDS011;37850;53.178;6.376;2023-04-06T02:28:06;10.18;;;4.68;;
51792;SDS011;37850;53.178;6.376;2023-04-06T02:30:32;9.82;;;5.28;;
51792;SDS011;37850;53.178;6.376;2023-04-06T02:33:01;13.30;;;5.32;;
51792;SDS011;37850;53.178;6.376;2023-04-06T02:35:30;7.97;;;4.78;;
51792;SDS011;37850;53.178;6.376;2023-04-06T02:37:56;10.48;;;4.68;;
51792;SDS011;37850;53.178;6.376;2023-04-06T02:40:22;12.27;;;5.03;;
51792;SDS011;37850;53.178;6.376;2023-04-06T02:42:48;11.02;;;4.75;;
51792;SDS011;37850;53.178;6.376;2023-04-06T02:45:14;8.48;;;4.32;;
51792;SDS011;37850;53.178;6.376;2023-04-06T02:47:40;10.75;;;5.15;;
51792;SDS011;37850;53.178;6.376;2023-04-06T02:50:06;14.20;;;4.72;;
51792;SDS011;37850;53.178;6.376;2023-04-06T02:52:35;10.45;;;4.90;;
51792;SDS011;37850;53.178;6.376;2023-04-06T02:55:01;8.30;;;4.18;;
51792;SDS011;37850;53.178;6.376;2023-04-06T02:57:27;13.07;;;4.85;;
51792;SDS011;37850;53.178;6.376;2023-04-06T02:59:52;9.18;;;4.68;;
51792;SDS011;37850;53.178;6.376;2023-04-06T03:02:18;9.20;;;4.82;;
51792;SDS011;37850;53.178;6.376;2023-04-06T03:04:44;11.88;;;5.20;;
51792;SDS011;37850;53.178;6.376;2023-04-06T03:07:10;12.32;;;4.78;;
51792;SDS011;37850;53.178;6.376;2023-04-06T03:09:39;9.23;;;4.78;;
51792;SDS011;37850;53.178;6.376;2023-04-06T03:12:05;10.88;;;4.80;;
51792;SDS011;37850;53.178;6.376;2023-04-06T03:14:31;9.98;;;4.50;;
51792;SDS011;37850;53.178;6.376;2023-04-06T03:16:56;9.35;;;4.88;;
51792;SDS011;37850;53.178;6.376;2023-04-06T03:19:22;10.32;;;5.22;;
51792;SDS011;37850;53.178;6.376;2023-04-06T03:21:48;10.85;;;4.85;;
51792;SDS011;37850;53.178;6.376;2023-04-06T03:24:13;9.55;;;4.90;;
51792;SDS011;37850;53.178;6.376;2023-04-06T03:26:39;8.52;;;4.80;;
51792;SDS011;37850;53.178;6.376;2023-04-06T03:29:05;8.93;;;4.75;;
51792;SDS011;37850;53.178;6.376;2023-04-06T03:31:31;10.32;;;5.35;;
51792;SDS011;37850;53.178;6.376;2023-04-06T03:33:57;13.73;;;4.97;;
51792;SDS011;37850;53.178;6.376;2023-04-06T03:36:22;8.60;;;4.53;;
51792;SDS011;37850;53.178;6.376;2023-04-06T03:38:48;10.73;;;5.55;;
51792;SDS011;37850;53.178;6.376;2023-04-06T03:41:14;8.68;;;4.05;;
51792;SDS011;37850;53.178;6.376;2023-04-06T03:43:40;10.40;;;5.18;;
51792;SDS011;37850;53.178;6.376;2023-04-06T03:46:06;10.27;;;5.28;;
51792;SDS011;37850;53.178;6.376;2023-04-06T03:48:32;9.70;;;5.35;;
51792;SDS011;37850;53.178;6.376;2023-04-06T03:51:01;10.63;;;4.55;;
51792;SDS011;37850;53.178;6.376;2023-04-06T03:53:27;11.18;;;5.13;;
51792;SDS011;37850;53.178;6.376;2023-04-06T03:55:52;8.68;;;4.65;;
51792;SDS011;37850;53.178;6.376;2023-04-06T03:58:18;12.77;;;5.38;;
51792;SDS011;37850;53.178;6.376;2023-04-06T04:00:44;9.63;;;5.10;;
51792;SDS011;37850;53.178;6.376;2023-04-06T04:03:09;10.90;;;4.85;;
51792;SDS011;37850;53.178;6.376;2023-04-06T04:05:35;10.35;;;4.90;;
51792;SDS011;37850;53.178;6.376;2023-04-06T04:08:01;8.73;;;5.07;;
51792;SDS011;37850;53.178;6.376;2023-04-06T04:10:27;15.18;;;4.88;;
51792;SDS011;37850;53.178;6.376;2023-04-06T04:12:52;12.00;;;5.38;;
51792;SDS011;37850;53.178;6.376;2023-04-06T04:15:18;11.93;;;5.68;;
51792;SDS011;37850;53.178;6.376;2023-04-06T04:17:43;9.73;;;5.47;;
51792;SDS011;37850;53.178;6.376;2023-04-06T04:20:14;10.35;;;5.40;;
51792;SDS011;37850;53.178;6.376;2023-04-06T04:22:41;10.77;;;5.72;;
51792;SDS011;37850;53.178;6.376;2023-04-06T04:25:07;9.32;;;5.50;;
51792;SDS011;37850;53.178;6.376;2023-04-06T04:27:33;10.80;;;5.18;;
51792;SDS011;37850;53.178;6.376;2023-04-06T04:29:59;10.90;;;5.60;;
51792;SDS011;37850;53.178;6.376;2023-04-06T04:32:25;11.05;;;5.40;;
51792;SDS011;37850;53.178;6.376;2023-04-06T04:34:52;11.48;;;5.72;;
51792;SDS011;37850;53.178;6.376;2023-04-06T04:37:18;10.68;;;5.57;;
51792;SDS011;37850;53.178;6.376;2023-04-06T04:39:44;7.95;;;5.05;;
51792;SDS011;37850;53.178;6.376;2023-04-06T04:42:10;9.95;;;6.05;;
51792;SDS011;37850;53.178;6.376;2023-04-06T04:44:36;11.63;;;5.10;;
51792;SDS011;37850;53.178;6.376;2023-04-06T04:47:02;12.82;;;5.82;;
51792;SDS011;37850;53.178;6.376;2023-04-06T04:49:27;9.70;;;5.72;;
51792;SDS011;37850;53.178;6.376;2023-04-06T04:51:54;10.88;;;5.70;;
51792;SDS011;37850;53.178;6.376;2023-04-06T04:54:20;12.10;;;5.80;;
51792;SDS011;37850;53.178;6.376;2023-04-06T04:56:46;10.10;;;5.63;;
51792;SDS011;37850;53.178;6.376;2023-04-06T04:59:11;12.32;;;5.35;;
51792;SDS011;37850;53.178;6.376;2023-04-06T05:01:37;10.00;;;5.35;;
51792;SDS011;37850;53.178;6.376;2023-04-06T05:04:03;14.00;;;6.28;;
51792;SDS011;37850;53.178;6.376;2023-04-06T05:06:29;11.20;;;6.30;;
51792;SDS011;37850;53.178;6.376;2023-04-06T05:08:55;12.48;;;5.80;;
51792;SDS011;37850;53.178;6.376;2023-04-06T05:11:20;13.63;;;5.82;;
51792;SDS011;37850;53.178;6.376;2023-04-06T05:13:46;14.07;;;5.82;;
51792;SDS011;37850;53.178;6.376;2023-04-06T05:16:12;9.63;;;5.88;;
51792;SDS011;37850;53.178;6.376;2023-04-06T05:18:38;12.32;;;6.03;;
51792;SDS011;37850;53.178;6.376;2023-04-06T05:21:03;11.48;;;6.03;;
51792;SDS011;37850;53.178;6.376;2023-04-06T05:23:29;10.63;;;6.00;;
51792;SDS011;37850;53.178;6.376;2023-04-06T05:25:55;12.45;;;6.28;;
51792;SDS011;37850;53.178;6.376;2023-04-06T05:28:21;13.27;;;5.90;;
51792;SDS011;37850;53.178;6.376;2023-04-06T05:30:47;9.77;;;5.43;;
51792;SDS011;37850;53.178;6.376;2023-04-06T05:33:12;14.40;;;6.05;;
51792;SDS011;37850;53.178;6.376;2023-04-06T05:35:38;9.68;;;5.78;;
51792;SDS011;37850;53.178;6.376;2023-04-06T05:38:07;16.38;;;7.63;;
51792;SDS011;37850;53.178;6.376;2023-04-06T05:40:35;12.03;;;6.33;;
51792;SDS011;37850;53.178;6.376;2023-04-06T05:43:02;12.88;;;6.35;;
51792;SDS011;37850;53.178;6.376;2023-04-06T05:45:28;12.15;;;5.93;;
51792;SDS011;37850;53.178;6.376;2023-04-06T05:47:55;12.10;;;6.38;;
51792;SDS011;37850;53.178;6.376;2023-04-06T05:50:21;14.90;;;6.75;;
51792;SDS011;37850;53.178;6.376;2023-04-06T05:52:47;10.70;;;6.28;;
51792;SDS011;37850;53.178;6.376;2023-04-06T05:55:13;15.93;;;6.20;;
51792;SDS011;37850;53.178;6.376;2023-04-06T05:57:38;12.63;;;6.60;;
51792;SDS011;37850;53.178;6.376;2023-04-06T06:00:07;14.23;;;6.20;;
51792;SDS011;37850;53.178;6.376;2023-04-06T06:02:34;10.05;;;5.95;;
51792;SDS011;37850;53.178;6.376;2023-04-06T06:05:00;11.02;;;5.95;;
51792;SDS011;37850;53.178;6.376;2023-04-06T06:07:25;11.45;;;6.13;;
51792;SDS011;37850;53.178;6.376;2023-04-06T06:09:51;12.85;;;5.90;;
51792;SDS011;37850;53.178;6.376;2023-04-06T06:12:17;12.48;;;6.20;;
51792;SDS011;37850;53.178;6.376;2023-04-06T06:14:42;10.38;;;5.68;;
51792;SDS011;37850;53.178;6.376;2023-04-06T06:17:08;13.35;;;6.03;;
51792;SDS011;37850;53.178;6.376;2023-04-06T06:19:34;11.45;;;6.28;;
51792;SDS011;37850;53.178;6.376;2023-04-06T06:22:00;14.50;;;6.00;;
51792;SDS011;37850;53.178;6.376;2023-04-06T06:24:27;12.18;;;6.60;;
51792;SDS011;37850;53.178;6.376;2023-04-06T06:26:53;13.25;;;6.25;;
51792;SDS011;37850;53.178;6.376;2023-04-06T06:29:19;11.15;;;5.97;;
51792;SDS011;37850;53.178;6.376;2023-04-06T06:31:45;9.90;;;5.78;;
51792;SDS011;37850;53.178;6.376;2023-04-06T06:34:11;10.20;;;6.00;;
51792;SDS011;37850;53.178;6.376;2023-04-06T06:36:37;14.60;;;5.65;;
51792;SDS011;37850;53.178;6.376;2023-04-06T06:39:03;11.75;;;6.35;;
51792;SDS011;37850;53.178;6.376;2023-04-06T06:41:29;12.02;;;6.35;;
51792;SDS011;37850;53.178;6.376;2023-04-06T06:43:55;10.73;;;6.55;;
51792;SDS011;37850;53.178;6.376;2023-04-06T06:46:21;13.38;;;6.20;;
51792;SDS011;37850;53.178;6.376;2023-04-06T06:48:46;11.27;;;6.07;;
51792;SDS011;37850;53.178;6.376;2023-04-06T06:51:12;11.00;;;6.28;;
51792;SDS011;37850;53.178;6.376;2023-04-06T06:53:38;14.13;;;6.53;;
51792;SDS011;37850;53.178;6.376;2023-04-06T06:56:03;12.88;;;6.15;;
51792;SDS011;37850;53.178;6.376;2023-04-06T06:58:29;12.15;;;6.60;;
51792;SDS011;37850;53.178;6.376;2023-04-06T07:00:55;12.75;;;6.20;;
51792;SDS011;37850;53.178;6.376;2023-04-06T07:03:25;12.68;;;6.13;;
51792;SDS011;37850;53.178;6.376;2023-04-06T07:05:51;9.63;;;5.55;;
51792;SDS011;37850;53.178;6.376;2023-04-06T07:08:20;9.80;;;6.28;;
51792;SDS011;37850;53.178;6.376;2023-04-06T07:10:47;12.65;;;7.00;;
51792;SDS011;37850;53.178;6.376;2023-04-06T07:13:14;13.48;;;7.47;;
51792;SDS011;37850;53.178;6.376;2023-04-06T07:15:44;13.73;;;6.57;;
51792;SDS011;37850;53.178;6.376;2023-04-06T07:18:09;12.65;;;7.47;;
51792;SDS011;37850;53.178;6.376;2023-04-06T07:20:35;14.88;;;6.55;;
51792;SDS011;37850;53.178;6.376;2023-04-06T07:23:04;13.10;;;6.97;;
51792;SDS011;37850;53.178;6.376;2023-04-06T07:25:30;13.38;;;6.85;;
51792;SDS011;37850;53.178;6.376;2023-04-06T07:27:56;14.02;;;6.82;;
51792;SDS011;37850;53.178;6.376;2023-04-06T07:30:21;14.10;;;7.25;;
51792;SDS011;37850;53.178;6.376;2023-04-06T07:32:47;11.50;;;6.85;;
51792;SDS011;37850;53.178;6.376;2023-04-06T07:35:14;12.80;;;7.22;;
51792;SDS011;37850;53.178;6.376;2023-04-06T07:37:40;14.43;;;7.43;;
51792;SDS011;37850;53.178;6.376;2023-04-06T07:40:07;14.70;;;7.03;;
51792;SDS011;37850;53.178;6.376;2023-04-06T07:42:33;12.07;;;6.75;;
51792;SDS011;37850;53.178;6.376;2023-04-06T07:44:59;12.85;;;6.70;;
51792;SDS011;37850;53.178;6.376;2023-04-06T07:47:25;13.77;;;7.13;;
51792;SDS011;37850;53.178;6.376;2023-04-06T07:49:51;11.02;;;6.32;;
51792;SDS011;37850;53.178;6.376;2023-04-06T07:52:16;12.98;;;7.30;;
51792;SDS011;37850;53.178;6.376;2023-04-06T07:54:42;14.63;;;6.80;;
51792;SDS011;37850;53.178;6.376;2023-04-06T07:57:09;12.52;;;7.22;;
51792;SDS011;37850;53.178;6.376;2023-04-06T07:59:34;12.23;;;7.10;;
51792;SDS011;37850;53.178;6.376;2023-04-06T08:02:00;12.70;;;6.90;;
51792;SDS011;37850;53.178;6.376;2023-04-06T08:04:26;12.73;;;7.05;;
51792;SDS011;37850;53.178;6.376;2023-04-06T08:06:51;13.85;;;6.63;;
51792;SDS011;37850;53.178;6.376;2023-04-06T08:09:17;11.95;;;7.55;;
51792;SDS011;37850;53.178;6.376;2023-04-06T08:11:43;10.65;;;6.82;;
51792;SDS011;37850;53.178;6.376;2023-04-06T08:14:11;12.50;;;6.85;;
51792;SDS011;37850;53.178;6.376;2023-04-06T08:16:36;13.23;;;7.80;;
51792;SDS011;37850;53.178;6.376;2023-04-06T08:19:02;15.32;;;7.38;;
51792;SDS011;37850;53.178;6.376;2023-04-06T08:21:29;13.27;;;7.85;;
51792;SDS011;37850;53.178;6.376;2023-04-06T08:23:55;13.00;;;7.32;;
51792;SDS011;37850;53.178;6.376;2023-04-06T08:26:21;15.32;;;7.65;;
51792;SDS011;37850;53.178;6.376;2023-04-06T08:28:46;12.60;;;7.63;;
51792;SDS011;37850;53.178;6.376;2023-04-06T08:31:12;14.48;;;7.78;;
51792;SDS011;37850;53.178;6.376;2023-04-06T08:33:38;11.40;;;7.18;;
51792;SDS011;37850;53.178;6.376;2023-04-06T08:36:11;15.48;;;8.25;;
51792;SDS011;37850;53.178;6.376;2023-04-06T08:38:38;13.18;;;7.20;;
51792;SDS011;37850;53.178;6.376;2023-04-06T08:43:46;15.07;;;7.93;;
51792;SDS011;37850;53.178;6.376;2023-04-06T08:46:13;12.55;;;7.60;;
51792;SDS011;37850;53.178;6.376;2023-04-06T08:48:40;16.73;;;7.50;;
51792;SDS011;37850;53.178;6.376;2023-04-06T08:51:07;12.18;;;7.32;;
51792;SDS011;37850;53.178;6.376;2023-04-06T08:53:34;14.23;;;8.38;;
51792;SDS011;37850;53.178;6.376;2023-04-06T08:56:01;16.55;;;8.80;;
51792;SDS011;37850;53.178;6.376;2023-04-06T08:58:28;14.80;;;8.18;;
51792;SDS011;37850;53.178;6.376;2023-04-06T09:01:01;13.07;;;8.32;;
51792;SDS011;37850;53.178;6.376;2023-04-06T09:03:31;13.15;;;8.13;;
51792;SDS011;37850;53.178;6.376;2023-04-06T09:06:01;14.10;;;7.55;;
51792;SDS011;37850;53.178;6.376;2023-04-06T09:08:27;13.40;;;8.27;;
51792;SDS011;37850;53.178;6.376;2023-04-06T09:10:53;13.00;;;8.20;;
51792;SDS011;37850;53.178;6.376;2023-04-06T09:13:19;18.92;;;9.05;;
51792;SDS011;37850;53.178;6.376;2023-04-06T09:15:44;15.48;;;8.63;;
51792;SDS011;37850;53.178;6.376;2023-04-06T09:18:10;15.75;;;8.82;;
51792;SDS011;37850;53.178;6.376;2023-04-06T09:20:36;17.15;;;9.48;;
51792;SDS011;37850;53.178;6.376;2023-04-06T09:23:01;16.10;;;9.35;;
51792;SDS011;37850;53.178;6.376;2023-04-06T09:25:27;15.48;;;9.23;;
51792;SDS011;37850;53.178;6.376;2023-04-06T09:27:59;16.27;;;9.32;;
51792;SDS011;37850;53.178;6.376;2023-04-06T09:30:27;16.38;;;8.88;;
51792;SDS011;37850;53.178;6.376;2023-04-06T09:32:56;14.88;;;9.50;;
51792;SDS011;37850;53.178;6.376;2023-04-06T09:35:23;18.60;;;9.73;;
51792;SDS011;37850;53.178;6.376;2023-04-06T09:37:51;18.17;;;10.57;;
51792;SDS011;37850;53.178;6.376;2023-04-06T09:40:18;18.20;;;10.55;;
51792;SDS011;37850;53.178;6.376;2023-04-06T09:42:45;22.38;;;11.43;;
51792;SDS011;37850;53.178;6.376;2023-04-06T09:45:12;19.90;;;11.10;;
51792;SDS011;37850;53.178;6.376;2023-04-06T09:47:39;19.42;;;11.23;;
51792;SDS011;37850;53.178;6.376;2023-04-06T09:50:13;16.95;;;9.20;;
51792;SDS011;37850;53.178;6.376;2023-04-06T09:55:20;18.05;;;10.63;;
51792;SDS011;37850;53.178;6.376;2023-04-06T09:58:15;19.98;;;11.05;;
51792;SDS011;37850;53.178;6.376;2023-04-06T10:01:01;22.63;;;12.90;;
51792;SDS011;37850;53.178;6.376;2023-04-06T10:06:21;24.30;;;12.23;;
51792;SDS011;37850;53.178;6.376;2023-04-06T10:08:49;22.83;;;12.52;;
51792;SDS011;37850;53.178;6.376;2023-04-06T10:11:16;22.77;;;12.55;;
51792;SDS011;37850;53.178;6.376;2023-04-06T10:13:43;21.42;;;12.00;;
51792;SDS011;37850;53.178;6.376;2023-04-06T10:16:12;22.20;;;13.65;;
51792;SDS011;37850;53.178;6.376;2023-04-06T10:18:39;22.60;;;13.70;;
51792;SDS011;37850;53.178;6.376;2023-04-06T10:21:20;26.13;;;14.43;;
51792;SDS011;37850;53.178;6.376;2023-04-06T10:23:59;21.57;;;13.93;;
51792;SDS011;37850;53.178;6.376;2023-04-06T10:26:27;22.33;;;13.27;;
51792;SDS011;37850;53.178;6.376;2023-04-06T10:28:53;22.10;;;13.48;;
51792;SDS011;37850;53.178;6.376;2023-04-06T10:31:26;23.85;;;14.38;;
51792;SDS011;37850;53.178;6.376;2023-04-06T10:33:53;22.90;;;13.48;;
51792;SDS011;37850;53.178;6.376;2023-04-06T10:36:26;22.42;;;13.63;;
51792;SDS011;37850;53.178;6.376;2023-04-06T10:39:00;25.42;;;13.38;;
51792;SDS011;37850;53.178;6.376;2023-04-06T10:41:33;25.15;;;14.18;;
51792;SDS011;37850;53.178;6.376;2023-04-06T10:43:59;22.95;;;14.13;;
51792;SDS011;37850;53.178;6.376;2023-04-06T10:46:30;24.70;;;15.35;;
51792;SDS011;37850;53.178;6.376;2023-04-06T10:48:56;29.33;;;16.07;;
51792;SDS011;37850;53.178;6.376;2023-04-06T10:51:27;27.00;;;15.93;;
51792;SDS011;37850;53.178;6.376;2023-04-06T10:53:53;28.42;;;17.00;;
51792;SDS011;37850;53.178;6.376;2023-04-06T10:56:21;28.35;;;17.48;;
51792;SDS011;37850;53.178;6.376;2023-04-06T10:58:53;32.33;;;20.63;;
51792;SDS011;37850;53.178;6.376;2023-04-06T11:01:23;29.52;;;18.70;;
51792;SDS011;37850;53.178;6.376;2023-04-06T11:03:54;29.85;;;18.13;;
51792;SDS011;37850;53.178;6.376;2023-04-06T11:06:26;29.88;;;18.35;;
51792;SDS011;37850;53.178;6.376;2023-04-06T11:08:54;33.53;;;20.15;;
51792;SDS011;37850;53.178;6.376;2023-04-06T11:11:21;34.25;;;20.15;;
51792;SDS011;37850;53.178;6.376;2023-04-06T11:13:52;30.80;;;19.02;;
51792;SDS011;37850;53.178;6.376;2023-04-06T11:16:24;28.95;;;18.38;;
51792;SDS011;37850;53.178;6.376;2023-04-06T11:18:55;30.42;;;18.08;;
51792;SDS011;37850;53.178;6.376;2023-04-06T11:21:36;28.50;;;18.25;;
51792;SDS011;37850;53.178;6.376;2023-04-06T11:24:09;29.08;;;18.75;;
51792;SDS011;37850;53.178;6.376;2023-04-06T11:26:37;32.55;;;19.27;;
51792;SDS011;37850;53.178;6.376;2023-04-06T11:29:04;32.47;;;21.35;;
51792;SDS011;37850;53.178;6.376;2023-04-06T11:31:30;33.20;;;21.70;;
51792;SDS011;37850;53.178;6.376;2023-04-06T11:33:56;35.70;;;21.65;;
51792;SDS011;37850;53.178;6.376;2023-04-06T11:36:22;34.22;;;22.02;;
51792;SDS011;37850;53.178;6.376;2023-04-06T11:38:51;34.28;;;19.95;;
51792;SDS011;37850;53.178;6.376;2023-04-06T11:41:17;34.30;;;21.10;;
51792;SDS011;37850;53.178;6.376;2023-04-06T11:43:47;33.13;;;21.67;;
51792;SDS011;37850;53.178;6.376;2023-04-06T11:46:16;31.48;;;19.75;;
51792;SDS011;37850;53.178;6.376;2023-04-06T11:48:44;29.85;;;19.13;;
51792;SDS011;37850;53.178;6.376;2023-04-06T11:51:12;31.20;;;20.48;;
51792;SDS011;37850;53.178;6.376;2023-04-06T11:53:46;30.52;;;19.73;;
51792;SDS011;37850;53.178;6.376;2023-04-06T11:56:22;33.60;;;19.40;;
51792;SDS011;37850;53.178;6.376;2023-04-06T11:58:49;33.05;;;19.25;;
51792;SDS011;37850;53.178;6.376;2023-04-06T12:01:14;33.28;;;18.77;;
51792;SDS011;37850;53.178;6.376;2023-04-06T12:03:40;32.47;;;19.58;;
51792;SDS011;37850;53.178;6.376;2023-04-06T12:06:06;31.92;;;18.30;;
51792;SDS011;37850;53.178;6.376;2023-04-06T12:08:32;33.00;;;20.23;;
51792;SDS011;37850;53.178;6.376;2023-04-06T12:10:58;32.25;;;19.80;;
51792;SDS011;37850;53.178;6.376;2023-04-06T12:13:24;29.92;;;18.75;;
51792;SDS011;37850;53.178;6.376;2023-04-06T12:15:50;29.58;;;19.48;;
51792;SDS011;37850;53.178;6.376;2023-04-06T12:18:16;29.40;;;19.27;;
51792;SDS011;37850;53.178;6.376;2023-04-06T12:20:41;31.05;;;19.42;;
51792;SDS011;37850;53.178;6.376;2023-04-06T12:23:07;30.30;;;19.25;;
51792;SDS011;37850;53.178;6.376;2023-04-06T12:25:33;32.35;;;19.80;;
51792;SDS011;37850;53.178;6.376;2023-04-06T12:27:58;34.17;;;18.90;;
51792;SDS011;37850;53.178;6.376;2023-04-06T12:30:24;29.48;;;18.88;;
51792;SDS011;37850;53.178;6.376;2023-04-06T12:32:50;33.40;;;19.60;;
51792;SDS011;37850;53.178;6.376;2023-04-06T12:35:16;31.17;;;19.58;;
51792;SDS011;37850;53.178;6.376;2023-04-06T12:37:41;30.13;;;18.75;;
51792;SDS011;37850;53.178;6.376;2023-04-06T12:40:07;29.52;;;18.85;;
51792;SDS011;37850;53.178;6.376;2023-04-06T12:42:38;30.85;;;18.85;;
51792;SDS011;37850;53.178;6.376;2023-04-06T12:45:06;30.70;;;19.15;;
51792;SDS011;37850;53.178;6.376;2023-04-06T12:47:33;32.63;;;18.40;;
51792;SDS011;37850;53.178;6.376;2023-04-06T12:49:58;30.60;;;18.27;;
51792;SDS011;37850;53.178;6.376;2023-04-06T12:52:24;28.38;;;18.33;;
51792;SDS011;37850;53.178;6.376;2023-04-06T12:54:50;31.08;;;19.45;;
51792;SDS011;37850;53.178;6.376;2023-04-06T12:57:16;36.92;;;19.55;;
51792;SDS011;37850;53.178;6.376;2023-04-06T12:59:45;34.22;;;20.17;;
51792;SDS011;37850;53.178;6.376;2023-04-06T13:02:11;34.70;;;20.50;;
51792;SDS011;37850;53.178;6.376;2023-04-06T13:04:37;30.88;;;19.40;;
51792;SDS011;37850;53.178;6.376;2023-04-06T13:07:02;28.48;;;18.65;;
51792;SDS011;37850;53.178;6.376;2023-04-06T13:09:28;28.80;;;17.48;;
51792;SDS011;37850;53.178;6.376;2023-04-06T13:11:54;26.45;;;16.20;;
51792;SDS011;37850;53.178;6.376;2023-04-06T13:14:20;24.27;;;16.33;;
51792;SDS011;37850;53.178;6.376;2023-04-06T13:16:46;25.02;;;15.93;;
51792;SDS011;37850;53.178;6.376;2023-04-06T13:19:12;22.45;;;14.35;;
51792;SDS011;37850;53.178;6.376;2023-04-06T13:21:37;19.85;;;13.02;;
51792;SDS011;37850;53.178;6.376;2023-04-06T13:24:04;16.40;;;10.68;;
51792;SDS011;37850;53.178;6.376;2023-04-06T13:26:30;18.10;;;11.45;;
51792;SDS011;37850;53.178;6.376;2023-04-06T13:28:56;21.20;;;12.10;;
51792;SDS011;37850;53.178;6.376;2023-04-06T13:31:22;16.45;;;10.77;;
51792;SDS011;37850;53.178;6.376;2023-04-06T13:33:48;16.77;;;9.50;;
51792;SDS011;37850;53.178;6.376;2023-04-06T13:36:14;12.20;;;7.03;;
51792;SDS011;37850;53.178;6.376;2023-04-06T13:38:41;12.68;;;7.35;;
51792;SDS011;37850;53.178;6.376;2023-04-06T13:41:06;13.60;;;8.13;;
51792;SDS011;37850;53.178;6.376;2023-04-06T13:43:32;13.60;;;7.43;;
51792;SDS011;37850;53.178;6.376;2023-04-06T13:45:58;14.52;;;8.18;;
51792;SDS011;37850;53.178;6.376;2023-04-06T13:48:26;17.17;;;9.60;;
51792;SDS011;37850;53.178;6.376;2023-04-06T13:50:52;14.13;;;9.20;;
51792;SDS011;37850;53.178;6.376;2023-04-06T13:53:17;15.40;;;8.80;;
51792;SDS011;37850;53.178;6.376;2023-04-06T13:55:43;18.58;;;10.20;;
51792;SDS011;37850;53.178;6.376;2023-04-06T13:58:16;16.98;;;9.88;;
51792;SDS011;37850;53.178;6.376;2023-04-06T14:00:42;19.27;;;10.43;;
51792;SDS011;37850;53.178;6.376;2023-04-06T14:03:08;17.33;;;9.77;;
51792;SDS011;37850;53.178;6.376;2023-04-06T14:05:33;16.73;;;10.18;;
51792;SDS011;37850;53.178;6.376;2023-04-06T14:07:59;18.23;;;10.85;;
51792;SDS011;37850;53.178;6.376;2023-04-06T14:10:25;17.25;;;10.35;;
51792;SDS011;37850;53.178;6.376;2023-04-06T14:12:52;15.88;;;9.73;;
51792;SDS011;37850;53.178;6.376;2023-04-06T14:15:18;16.35;;;9.70;;
51792;SDS011;37850;53.178;6.376;2023-04-06T14:17:44;13.35;;;9.05;;
51792;SDS011;37850;53.178;6.376;2023-04-06T14:20:10;15.65;;;9.77;;
51792;SDS011;37850;53.178;6.376;2023-04-06T14:22:39;17.77;;;10.10;;
51792;SDS011;37850;53.178;6.376;2023-04-06T14:25:06;17.40;;;10.50;;
51792;SDS011;37850;53.178;6.376;2023-04-06T14:27:32;17.73;;;10.13;;
51792;SDS011;37850;53.178;6.376;2023-04-06T14:29:58;18.42;;;11.07;;
51792;SDS011;37850;53.178;6.376;2023-04-06T14:32:24;18.30;;;10.85;;
51792;SDS011;37850;53.178;6.376;2023-04-06T14:34:50;17.23;;;10.75;;
51792;SDS011;37850;53.178;6.376;2023-04-06T14:37:16;16.30;;;10.55;;
51792;SDS011;37850;53.178;6.376;2023-04-06T14:39:42;16.67;;;10.48;;